createdAt,value
2018-05-11T00:01:02.064Z,67.30
2018-05-11T00:05:04.604Z,65.40
2018-05-11T00:09:07.905Z,65.50
2018-05-11T00:13:11.212Z,65.10
2018-05-11T00:17:14.503Z,66.70
2018-05-11T00:21:17.036Z,66.70
2018-05-11T00:25:19.571Z,66.70
2018-05-11T00:29:22.889Z,66.90
2018-05-11T00:33:25.495Z,66.90
2018-05-11T00:37:28.038Z,67.30
2018-05-11T00:41:31.360Z,70.10
2018-05-11T00:45:34.650Z,66.70
2018-05-11T00:49:37.957Z,67.10
2018-05-11T00:53:41.311Z,67.30
2018-05-11T00:57:43.842Z,67.30
2018-05-11T01:01:47.142Z,66.80
2018-05-11T01:05:50.415Z,67.10
2018-05-11T01:09:53.004Z,67.00
2018-05-11T01:13:55.571Z,67.00
2018-05-11T01:17:58.130Z,67.20
2018-05-11T01:22:00.680Z,65.60
2018-05-11T01:26:03.243Z,68.00
2018-05-11T01:30:05.793Z,66.00
2018-05-11T01:34:08.437Z,67.30
2018-05-11T01:38:10.973Z,67.30
2018-05-11T01:42:13.510Z,68.40
2018-05-11T01:46:16.028Z,68.90
2018-05-11T01:50:18.564Z,67.10
2018-05-11T01:54:21.104Z,66.90
2018-05-11T01:58:23.644Z,65.80
2018-05-11T02:02:26.192Z,69.40
2018-05-11T02:06:28.724Z,68.40
2018-05-11T02:10:32.027Z,68.70
2018-05-11T02:14:35.337Z,66.50
2018-05-11T02:18:38.643Z,69.30
2018-05-11T02:22:41.196Z,69.60
2018-05-11T02:26:43.716Z,67.90
2018-05-11T02:30:47.031Z,68.30
2018-05-11T02:34:49.563Z,68.30
2018-05-11T02:38:52.108Z,67.40
2018-05-11T02:42:55.035Z,67.50
2018-05-11T02:46:58.516Z,68.30
2018-05-11T02:51:01.055Z,69.10
2018-05-11T02:55:04.362Z,68.40
2018-05-11T02:59:07.690Z,66.90
2018-05-11T03:03:10.224Z,66.80
2018-05-11T03:07:12.774Z,68.60
2018-05-11T03:11:15.292Z,66.30
2018-05-11T03:15:17.823Z,68.00
2018-05-11T03:19:20.379Z,67.90
2018-05-11T03:23:22.920Z,67.40
2018-05-11T03:27:25.464Z,67.70
2018-05-11T03:31:28.754Z,68.40
2018-05-11T03:35:31.297Z,68.50
2018-05-11T03:39:33.836Z,68.60
2018-05-11T03:43:36.371Z,67.40
2018-05-11T03:47:38.967Z,68.60
2018-05-11T03:51:41.495Z,67.90
2018-05-11T03:55:44.824Z,68.40
2018-05-11T03:59:47.373Z,68.40
2018-05-11T04:04:01.834Z,67.90
2018-05-11T04:12:38.476Z,73.10
2018-05-11T04:16:41.008Z,68.80
2018-05-11T04:20:43.563Z,67.60
2018-05-11T04:24:46.115Z,70.30
2018-05-11T04:28:49.424Z,67.90
2018-05-11T04:32:51.984Z,67.80
2018-05-11T04:36:54.500Z,68.20
2018-05-11T04:40:57.036Z,71.80
2018-05-11T04:44:59.577Z,68.00
2018-05-11T04:49:02.134Z,69.70
2018-05-11T04:53:05.412Z,68.60
2018-05-11T04:57:07.956Z,69.20
2018-05-11T05:01:10.491Z,69.50
2018-05-11T05:05:13.028Z,66.10
2018-05-11T05:09:15.568Z,67.00
2018-05-11T05:13:18.863Z,66.70
2018-05-11T05:17:21.401Z,65.90
2018-05-11T05:21:23.934Z,66.30
2018-05-11T05:25:26.471Z,69.50
2018-05-11T05:29:29.027Z,67.90
2018-05-11T05:33:32.388Z,68.80
2018-05-11T05:37:34.903Z,69.50
2018-05-11T05:41:39.062Z,71.10
2018-05-11T05:45:41.600Z,70.70
2018-05-11T05:49:44.160Z,70.90
2018-05-11T05:53:46.693Z,68.00
2018-05-11T05:57:49.986Z,67.20
2018-05-11T06:01:53.283Z,69.70
2018-05-11T06:05:55.823Z,69.00
2018-05-11T06:09:58.647Z,67.40
2018-05-11T06:14:01.200Z,68.30
2018-05-11T06:18:03.741Z,68.80
2018-05-11T06:22:07.079Z,67.00
2018-05-11T06:26:09.603Z,66.90
2018-05-11T06:30:12.149Z,68.40
2018-05-11T06:34:14.866Z,67.70
2018-05-11T06:38:17.375Z,66.60
2018-05-11T06:42:19.911Z,68.90
2018-05-11T06:46:22.448Z,66.10
2018-05-11T06:50:24.983Z,68.60
2018-05-11T06:54:27.513Z,68.30
2018-05-11T06:58:30.803Z,68.20
2018-05-11T07:02:33.341Z,67.20
2018-05-11T07:06:35.882Z,66.20
2018-05-11T07:10:38.423Z,66.50
2018-05-11T07:14:40.955Z,69.10
2018-05-11T07:18:44.271Z,67.50
2018-05-11T07:22:47.740Z,66.60
2018-05-11T07:26:50.279Z,66.60
2018-05-11T07:30:52.816Z,66.30
2018-05-11T07:34:55.394Z,66.20
2018-05-11T07:38:57.899Z,65.90
2018-05-11T07:43:00.452Z,66.90
2018-05-11T07:47:02.995Z,67.20
2018-05-11T07:51:05.536Z,65.20
2018-05-11T07:55:08.076Z,68.50
2018-05-11T07:59:10.604Z,66.20
2018-05-11T08:03:13.148Z,66.10
2018-05-11T08:07:15.691Z,65.20
2018-05-11T08:11:18.236Z,67.40
2018-05-11T08:15:20.787Z,65.40
2018-05-11T08:19:24.966Z,67.80
2018-05-11T08:23:32.451Z,67.60
2018-05-11T08:27:34.988Z,67.70
2018-05-11T08:31:38.364Z,64.90
2018-05-11T08:35:40.904Z,64.90
2018-05-11T08:39:43.439Z,65.80
2018-05-11T08:43:45.954Z,64.70
2018-05-11T08:47:49.255Z,68.00
2018-05-11T08:51:52.560Z,65.70
2018-05-11T08:55:55.142Z,65.60
2018-05-11T08:59:57.656Z,67.20
2018-05-11T09:04:00.180Z,66.00
2018-05-11T09:08:02.724Z,66.10
2018-05-11T09:12:05.329Z,64.50
2018-05-11T09:16:08.581Z,65.70
2018-05-11T09:20:11.887Z,66.50
2018-05-11T09:24:15.915Z,65.60
2018-05-11T09:28:18.457Z,65.60
2018-05-11T09:32:21.029Z,64.90
2018-05-11T09:36:23.555Z,64.90
2018-05-11T09:40:27.049Z,64.90
2018-05-11T09:44:29.560Z,64.90
2018-05-11T09:48:32.096Z,64.40
2018-05-11T09:52:34.632Z,64.70
2018-05-11T09:56:37.163Z,64.10
2018-05-11T10:00:39.767Z,64.40
2018-05-11T10:04:42.244Z,64.50
2018-05-11T10:08:45.652Z,64.40
2018-05-11T10:12:48.975Z,64.50
2018-05-11T10:16:52.300Z,63.90
2018-05-11T10:20:54.870Z,63.80
2018-05-11T10:24:57.412Z,64.00
2018-05-11T10:28:59.970Z,63.50
2018-05-11T10:33:02.516Z,64.20
2018-05-11T10:37:05.811Z,63.80
2018-05-11T10:41:08.352Z,63.80
2018-05-11T10:45:10.871Z,64.10
2018-05-11T10:49:13.427Z,63.70
2018-05-11T10:53:16.728Z,62.70
2018-05-11T10:57:19.258Z,62.60
2018-05-11T11:01:21.794Z,63.20
2018-05-11T11:05:24.346Z,63.40
2018-05-11T11:09:26.888Z,62.20
2018-05-11T11:13:29.435Z,61.50
2018-05-11T11:17:31.980Z,62.30
2018-05-11T11:21:34.515Z,58.90
2018-05-11T11:25:37.052Z,63.10
2018-05-11T11:29:39.582Z,61.50
2018-05-11T11:33:42.943Z,62.10
2018-05-11T11:37:46.239Z,61.80
2018-05-11T11:41:48.774Z,61.80
2018-05-11T11:45:51.323Z,61.80
2018-05-11T11:49:54.601Z,59.30
2018-05-11T11:53:57.251Z,59.40
2018-05-11T11:57:59.796Z,61.60
2018-05-11T12:02:03.273Z,61.30
2018-05-11T12:06:05.667Z,61.20
2018-05-11T12:10:08.198Z,61.10
2018-05-11T12:14:10.734Z,61.80
2018-05-11T12:18:13.266Z,61.20
2018-05-11T12:22:15.805Z,61.60
2018-05-11T12:26:18.358Z,62.10
2018-05-11T12:30:20.872Z,58.90
2018-05-11T12:34:23.412Z,60.30
2018-05-11T12:42:34.524Z,59.60
2018-05-11T12:46:37.138Z,59.50
2018-05-11T12:50:39.624Z,59.30
2018-05-11T12:54:42.175Z,59.90
2018-05-11T12:58:44.721Z,58.60
2018-05-11T13:02:47.260Z,61.00
2018-05-11T13:06:49.819Z,61.10
2018-05-11T13:10:52.339Z,61.40
2018-05-11T13:14:54.879Z,60.10
2018-05-11T13:18:57.427Z,58.80
2018-05-11T13:22:59.971Z,60.20
2018-05-11T13:27:02.515Z,59.50
2018-05-11T13:31:05.037Z,60.30
2018-05-11T13:35:07.576Z,60.20
2018-05-11T13:39:10.103Z,60.20
2018-05-11T13:43:12.645Z,60.30
2018-05-11T13:47:15.157Z,58.70
2018-05-11T13:51:18.565Z,60.00
2018-05-11T13:55:21.107Z,59.90
2018-05-11T13:59:23.654Z,60.50
2018-05-11T14:03:26.191Z,59.70
2018-05-11T14:07:28.701Z,60.00
2018-05-11T14:11:31.240Z,60.20
2018-05-11T14:15:33.792Z,60.00
2018-05-11T14:19:36.332Z,60.20
2018-05-11T14:23:38.844Z,60.50
2018-05-11T14:27:41.382Z,60.40
2018-05-11T14:31:43.920Z,60.80
2018-05-11T14:35:46.447Z,61.10
2018-05-11T14:39:48.979Z,61.20
2018-05-11T14:43:52.256Z,61.40
2018-05-11T14:47:55.567Z,60.80
2018-05-11T14:51:58.116Z,60.80
2018-05-11T14:56:00.643Z,60.30
2018-05-11T15:00:03.935Z,60.60
2018-05-11T15:04:06.480Z,60.50
2018-05-11T15:08:09.023Z,61.10
2018-05-11T15:12:12.328Z,59.50
2018-05-11T15:16:14.864Z,59.50
2018-05-11T15:20:17.417Z,60.20
2018-05-11T15:24:19.932Z,59.50
2018-05-11T15:28:22.470Z,59.40
2018-05-11T15:32:25.016Z,59.60
2018-05-11T15:36:27.557Z,58.20
2018-05-11T15:40:30.168Z,59.30
2018-05-11T15:44:33.425Z,60.50
2018-05-11T15:48:36.727Z,57.70
2018-05-11T15:52:39.259Z,57.60
2018-05-11T15:56:41.820Z,57.40
2018-05-11T16:00:44.351Z,57.60
2018-05-11T16:04:46.931Z,56.00
2018-05-11T16:08:49.463Z,56.40
2018-05-11T16:12:52.129Z,54.90
2018-05-11T16:16:55.328Z,58.00
2018-05-11T16:20:58.599Z,56.90
2018-05-11T16:25:01.129Z,57.00
2018-05-11T16:29:03.700Z,56.00
2018-05-11T16:33:07.000Z,57.90
2018-05-11T16:37:10.362Z,54.20
2018-05-11T16:41:12.877Z,54.60
2018-05-11T16:45:15.421Z,57.40
2018-05-11T16:49:17.979Z,53.80
2018-05-11T16:53:20.553Z,54.60
2018-05-11T16:57:23.866Z,54.80
2018-05-11T17:01:26.396Z,54.50
2018-05-11T17:05:28.940Z,55.90
2018-05-11T17:09:31.496Z,55.20
2018-05-11T17:13:34.044Z,56.60
2018-05-11T17:17:36.576Z,56.80
2018-05-11T17:21:39.864Z,56.90
2018-05-11T17:25:42.407Z,57.10
2018-05-11T17:29:44.948Z,57.10
2018-05-11T17:33:48.265Z,57.00
2018-05-11T17:37:50.876Z,57.00
2018-05-11T17:41:53.415Z,56.80
2018-05-11T17:45:55.944Z,56.80
2018-05-11T17:49:58.485Z,57.30
2018-05-11T17:54:01.025Z,58.20
2018-05-11T17:58:03.565Z,57.90
2018-05-11T18:02:06.843Z,58.00
2018-05-11T18:06:09.383Z,57.90
2018-05-11T18:10:11.999Z,58.20
2018-05-11T18:14:15.234Z,58.70
2018-05-11T18:18:18.531Z,59.00
2018-05-11T18:22:21.051Z,58.70
2018-05-11T18:26:23.579Z,59.50
2018-05-11T18:30:26.112Z,58.70
2018-05-11T18:34:28.659Z,58.90
2018-05-11T18:38:31.191Z,59.10
2018-05-11T18:42:33.708Z,59.20
2018-05-11T18:46:36.256Z,59.30
2018-05-11T18:50:38.805Z,59.60
2018-05-11T18:54:41.730Z,59.60
2018-05-11T18:58:43.906Z,60.40
2018-05-11T19:02:46.432Z,60.00
2018-05-11T19:06:48.964Z,60.40
2018-05-11T19:10:51.492Z,60.10
2018-05-11T19:14:54.017Z,60.40
2018-05-11T19:18:56.550Z,59.80
2018-05-11T19:22:59.068Z,60.40
2018-05-11T19:27:01.608Z,60.60
2018-05-11T19:31:04.143Z,60.20
2018-05-11T19:35:06.681Z,60.30
2018-05-11T19:39:09.216Z,60.00
2018-05-11T19:43:11.727Z,60.80
2018-05-11T19:47:15.029Z,60.60
2018-05-11T19:51:18.324Z,60.60
2018-05-11T19:55:21.619Z,60.60
2018-05-11T19:59:24.952Z,61.50
2018-05-11T20:03:27.935Z,60.90
2018-05-11T20:07:31.207Z,61.20
2018-05-11T20:11:33.742Z,61.20
2018-05-11T20:15:36.275Z,61.60
2018-05-11T20:19:38.806Z,62.20
2018-05-11T20:23:41.387Z,61.30
2018-05-11T20:27:43.860Z,61.00
2018-05-11T20:31:46.402Z,61.10
2018-05-11T20:35:48.944Z,60.60
2018-05-11T20:39:51.484Z,60.60
2018-05-11T20:43:54.087Z,61.80
2018-05-11T20:47:57.362Z,63.50
2018-05-11T20:51:59.901Z,63.50
2018-05-11T20:56:02.440Z,63.40
2018-05-11T21:00:04.984Z,61.00
2018-05-11T21:04:07.622Z,62.60
2018-05-11T21:08:11.197Z,61.30
2018-05-11T21:12:13.784Z,62.80
2018-05-11T21:16:16.319Z,62.50
2018-05-11T21:20:19.625Z,63.20
2018-05-11T21:24:22.931Z,62.10
2018-05-11T21:28:26.226Z,62.00
2018-05-11T21:32:29.547Z,63.40
2018-05-11T21:36:32.100Z,63.50
2018-05-11T21:40:34.648Z,64.50
2018-05-11T21:44:37.187Z,61.90
2018-05-11T21:48:40.479Z,61.10
2018-05-11T21:52:43.779Z,63.70
2018-05-11T21:56:46.312Z,63.10
2018-05-11T22:00:48.852Z,61.80
2018-05-11T22:04:51.419Z,62.20
2018-05-11T22:08:53.945Z,61.40
2018-05-11T22:12:58.632Z,61.60
2018-05-11T22:17:01.170Z,61.70
2018-05-11T22:21:03.705Z,62.50
2018-05-11T22:25:06.243Z,63.20
2018-05-11T22:29:08.813Z,63.00
2018-05-11T22:33:12.117Z,62.90
2018-05-11T22:37:14.671Z,62.90
2018-05-11T22:41:17.204Z,63.00
2018-05-11T22:45:19.740Z,62.70
2018-05-11T22:49:22.279Z,62.90
2018-05-11T22:53:24.808Z,63.40
2018-05-11T22:57:27.348Z,62.80
2018-05-11T23:01:29.887Z,63.20
2018-05-11T23:05:32.419Z,63.00
2018-05-11T23:09:35.733Z,62.80
2018-05-11T23:13:38.256Z,62.70
2018-05-11T23:17:40.796Z,61.90
2018-05-11T23:21:43.336Z,62.80
2018-05-11T23:25:46.637Z,63.20
2018-05-11T23:29:49.939Z,62.60
2018-05-11T23:33:53.224Z,63.50
2018-05-11T23:37:55.777Z,62.60
2018-05-11T23:41:58.316Z,65.70
2018-05-11T23:46:00.867Z,64.20
2018-05-11T23:50:03.408Z,64.90
2018-05-11T23:54:05.942Z,63.60
2018-05-11T23:58:08.478Z,63.50
